Time;durP1;ratioP1;P1;durP2;ratioP2;P2;SDS_P1;SDS_P2;PMS_P1;PMS_P2;Temp;Humidity;BMP_temperature;BMP_pressure;BME280_temperature;BME280_humidity;BME280_pressure;Samples;Min_cycle;Max_cycle;Signal;HPM_P1;HPM_P2
2022/09/10 00:00:55;;;;;;;10.17;5.20;;;15.10;99.90;;;;;;4959005;28;20224;-91
2022/09/10 00:03:21;;;;;;;12.47;5.67;;;15.10;99.90;;;;;;4971186;28;20189;-91
2022/09/10 00:05:47;;;;;;;11.57;5.73;;;15.10;99.90;;;;;;4971174;28;20246;-91
2022/09/10 00:08:14;;;;;;;7.77;4.97;;;15.10;99.90;;;;;;4977776;28;20225;-92
2022/09/10 00:10:43;;;;;;;8.77;5.57;;;15.10;99.90;;;;;;4978866;28;20212;-92
2022/09/10 00:13:10;;;;;;;10.80;5.73;;;15.20;99.90;;;;;;4981321;28;20217;-91
2022/09/10 00:15:44;;;;;;;9.57;5.67;;;15.20;99.90;;;;;;4977148;28;20693;-92
2022/09/10 00:18:11;;;;;;;7.87;5.63;;;15.10;99.90;;;;;;4979660;28;20264;-92
2022/09/10 00:20:52;;;;;;;8.10;6.27;;;15.10;99.90;;;;;;4976529;28;20200;-92
2022/09/10 00:23:20;;;;;;;10.63;4.93;;;15.10;99.90;;;;;;4977035;28;20272;-92
2022/09/10 00:25:47;;;;;;;13.60;5.60;;;15.10;99.90;;;;;;4956589;28;20217;-91
2022/09/10 00:28:14;;;;;;;9.90;5.70;;;15.20;99.90;;;;;;4956215;28;20248;-92
2022/09/10 00:30:41;;;;;;;9.60;6.27;;;15.20;99.90;;;;;;4944504;28;20290;-91
2022/09/10 00:33:07;;;;;;;12.23;6.30;;;15.30;99.90;;;;;;4959374;28;20251;-91
2022/09/10 00:35:34;;;;;;;12.63;7.00;;;15.20;99.90;;;;;;4945385;28;20255;-92
2022/09/10 00:38:00;;;;;;;10.27;6.83;;;15.30;99.90;;;;;;4976111;28;20346;-92
2022/09/10 00:40:27;;;;;;;12.37;6.23;;;15.40;99.90;;;;;;4977095;28;20228;-92
2022/09/10 00:42:53;;;;;;;11.77;7.03;;;15.40;99.90;;;;;;4959240;28;20577;-91
2022/09/10 00:45:32;;;;;;;9.63;6.57;;;15.50;99.90;;;;;;4975401;28;20173;-92
2022/09/10 00:48:15;;;;;;;11.27;6.43;;;15.50;99.90;;;;;;4974220;28;20192;-91
2022/09/10 00:50:43;;;;;;;14.77;7.73;;;15.50;99.90;;;;;;4960730;28;21247;-92
2022/09/10 00:53:16;;;;;;;11.60;7.80;;;15.60;99.90;;;;;;4977383;28;20588;-92
2022/09/10 00:55:46;;;;;;;15.53;8.23;;;15.60;99.90;;;;;;4979150;28;20311;-91
2022/09/10 00:58:14;;;;;;;12.77;7.83;;;15.70;99.90;;;;;;4978626;28;20216;-92
2022/09/10 01:00:40;;;;;;;18.70;8.23;;;15.80;99.90;;;;;;4957217;28;20304;-92
2022/09/10 01:03:10;;;;;;;10.27;8.33;;;15.80;99.90;;;;;;4948736;28;20193;-93
2022/09/10 01:05:37;;;;;;;14.67;8.90;;;15.90;99.90;;;;;;4960481;29;20233;-92
2022/09/10 01:08:03;;;;;;;17.50;9.37;;;15.90;99.90;;;;;;4941883;29;20232;-92
2022/09/10 01:10:46;;;;;;;15.03;8.13;;;15.90;99.90;;;;;;4954928;28;20300;-93
2022/09/10 01:13:32;;;;;;;13.90;7.30;;;15.90;99.90;;;;;;4969759;28;20213;-92
2022/09/10 01:16:15;;;;;;;18.23;9.20;;;15.90;99.90;;;;;;4960034;28;20213;-93
2022/09/10 01:18:58;;;;;;;21.00;8.70;;;16.00;99.90;;;;;;4965695;28;20719;-91
2022/09/10 01:21:50;;;;;;;20.43;10.10;;;15.90;99.90;;;;;;4973949;28;20206;-92
2022/09/10 01:24:16;;;;;;;23.00;10.23;;;16.00;99.90;;;;;;4969380;28;20181;-92
2022/09/10 01:27:00;;;;;;;17.50;9.60;;;15.90;99.90;;;;;;4975844;28;20189;-92
2022/09/10 01:29:48;;;;;;;20.97;11.33;;;16.00;99.90;;;;;;4974118;28;20232;-92
2022/09/10 01:32:27;;;;;;;22.27;11.00;;;16.00;99.90;;;;;;4971834;28;20213;-92
2022/09/10 01:35:07;;;;;;;16.03;9.23;;;16.10;99.90;;;;;;4974101;28;20216;-90
2022/09/10 01:37:36;;;;;;;18.33;10.87;;;16.10;99.90;;;;;;4954105;28;20264;-90
2022/09/10 01:40:03;;;;;;;21.33;10.67;;;16.10;99.90;;;;;;4958852;28;20222;-90
2022/09/10 01:42:29;;;;;;;18.00;9.20;;;16.10;99.90;;;;;;4957268;28;20221;-90
2022/09/10 01:44:56;;;;;;;19.37;10.33;;;16.10;99.90;;;;;;4941862;28;20557;-90
2022/09/10 01:47:40;;;;;;;19.30;10.93;;;16.10;99.90;;;;;;4957087;28;20226;-90
2022/09/10 01:50:12;;;;;;;20.53;10.17;;;16.20;99.90;;;;;;4972771;28;20729;-90
2022/09/10 01:52:44;;;;;;;18.70;10.50;;;16.10;99.90;;;;;;4973177;28;20224;-91
2022/09/10 01:55:12;;;;;;;27.63;10.83;;;16.20;99.90;;;;;;4972734;28;20232;-90
2022/09/10 01:58:16;;;;;;;22.37;10.97;;;16.20;99.90;;;;;;4973142;28;20236;-92
2022/09/10 02:00:52;;;;;;;24.40;11.50;;;16.20;99.90;;;;;;4998342;28;20237;-92
2022/09/10 02:03:25;;;;;;;24.20;10.73;;;16.10;99.90;;;;;;4976951;28;20225;-92
2022/09/10 02:05:55;;;;;;;14.93;8.60;;;16.10;99.90;;;;;;4974937;28;20236;-90
2022/09/10 02:08:26;;;;;;;18.23;11.87;;;16.10;99.90;;;;;;4983002;28;20211;-93
2022/09/10 02:11:06;;;;;;;20.83;9.97;;;16.10;99.90;;;;;;4966320;28;20224;-92
2022/09/10 02:13:34;;;;;;;18.33;10.93;;;16.10;99.90;;;;;;4988770;28;20302;-92
2022/09/10 02:16:02;;;;;;;18.27;9.13;;;16.10;99.90;;;;;;4984934;28;20227;-92
2022/09/10 02:18:33;;;;;;;18.57;10.00;;;16.10;99.90;;;;;;4986589;28;20237;-92
2022/09/10 02:21:05;;;;;;;18.23;9.00;;;16.10;99.90;;;;;;4987241;28;20212;-92
2022/09/10 02:23:38;;;;;;;24.00;10.60;;;16.10;99.90;;;;;;4989081;28;20208;-92
2022/09/10 02:26:04;;;;;;;20.43;10.43;;;16.00;99.90;;;;;;4977708;28;20287;-93
2022/09/10 02:28:31;;;;;;;19.87;11.40;;;16.00;99.90;;;;;;4983055;28;20237;-92
2022/09/10 02:30:57;;;;;;;20.37;11.57;;;15.90;99.90;;;;;;4976053;28;20217;-92
2022/09/10 02:33:23;;;;;;;20.33;11.00;;;15.90;99.90;;;;;;4986336;28;20193;-91
2022/09/10 02:35:50;;;;;;;19.67;10.57;;;15.90;99.90;;;;;;4941883;28;20276;-91
2022/09/10 02:38:17;;;;;;;17.93;10.23;;;15.90;99.90;;;;;;4957165;28;20209;-92
2022/09/10 02:40:42;;;;;;;19.33;11.43;;;15.90;99.90;;;;;;4940768;28;20260;-91
2022/09/10 02:43:08;;;;;;;21.47;12.03;;;15.90;99.90;;;;;;4940459;29;20260;-92
2022/09/10 02:45:35;;;;;;;17.27;10.93;;;16.00;99.90;;;;;;4943674;28;20286;-91
2022/09/10 02:48:03;;;;;;;19.70;9.57;;;16.00;99.90;;;;;;4941061;28;20177;-90
2022/09/10 02:50:28;;;;;;;18.97;10.83;;;16.00;99.90;;;;;;4956101;28;20225;-91
2022/09/10 02:52:54;;;;;;;27.37;12.03;;;16.00;99.90;;;;;;4956822;28;20304;-90
2022/09/10 02:55:20;;;;;;;25.57;13.40;;;16.00;99.90;;;;;;4959473;28;20252;-91
2022/09/10 02:57:45;;;;;;;19.60;11.73;;;16.00;99.90;;;;;;4940716;29;20217;-91
2022/09/10 03:00:11;;;;;;;24.70;11.70;;;16.10;99.90;;;;;;4937704;28;20650;-91
2022/09/10 03:02:37;;;;;;;24.07;14.33;;;16.10;99.90;;;;;;4940920;29;20190;-91
2022/09/10 03:05:03;;;;;;;23.93;13.03;;;16.20;99.90;;;;;;4943445;28;20356;-91
2022/09/10 03:07:30;;;;;;;32.53;13.33;;;16.10;99.90;;;;;;4956880;28;20217;-91
2022/09/10 03:09:56;;;;;;;25.40;12.00;;;16.20;99.90;;;;;;4966631;28;20674;-91
2022/09/10 03:12:21;;;;;;;28.03;12.93;;;16.10;99.90;;;;;;4942248;28;20252;-92
2022/09/10 03:14:49;;;;;;;21.00;13.17;;;16.20;99.90;;;;;;4957729;28;20228;-92
2022/09/10 03:17:17;;;;;;;21.37;13.00;;;16.20;99.90;;;;;;4941350;29;20257;-92
2022/09/10 03:19:43;;;;;;;41.13;12.93;;;16.20;99.90;;;;;;4941803;29;20229;-91
2022/09/10 03:22:10;;;;;;;29.17;15.37;;;16.10;99.90;;;;;;4951601;28;20243;-92
2022/09/10 03:24:35;;;;;;;27.93;12.87;;;16.20;99.90;;;;;;4944842;28;20216;-92
2022/09/10 03:27:01;;;;;;;23.03;12.47;;;16.10;99.90;;;;;;4945057;28;20187;-92
2022/09/10 03:29:28;;;;;;;24.03;12.50;;;16.10;99.90;;;;;;4961545;28;20616;-91
2022/09/10 03:31:55;;;;;;;27.60;12.93;;;16.10;99.90;;;;;;4946474;28;20228;-91
2022/09/10 03:34:21;;;;;;;23.80;11.63;;;16.10;99.90;;;;;;4958642;28;20227;-91
2022/09/10 03:36:47;;;;;;;21.67;12.50;;;16.10;99.90;;;;;;4942626;28;20209;-91
2022/09/10 03:39:17;;;;;;;25.20;12.80;;;16.10;99.90;;;;;;4939377;28;20185;-91
2022/09/10 03:41:44;;;;;;;21.33;11.73;;;16.10;99.90;;;;;;4955908;29;20236;-91
2022/09/10 03:44:10;;;;;;;23.60;11.63;;;16.10;99.90;;;;;;4943725;28;20236;-91
2022/09/10 03:46:37;;;;;;;17.77;11.50;;;16.10;99.90;;;;;;4958484;28;20213;-91
2022/09/10 03:49:04;;;;;;;23.43;11.47;;;16.00;99.90;;;;;;4954820;28;20678;-91
2022/09/10 03:51:30;;;;;;;20.53;11.13;;;16.00;99.90;;;;;;4939190;28;20217;-91
2022/09/10 03:53:58;;;;;;;20.03;11.83;;;15.90;99.90;;;;;;4939706;29;20208;-91
2022/09/10 03:56:24;;;;;;;25.90;12.30;;;15.90;99.90;;;;;;4943517;28;20217;-90
2022/09/10 03:58:51;;;;;;;25.47;11.97;;;16.00;99.90;;;;;;4958205;28;20212;-91
2022/09/10 04:01:18;;;;;;;25.10;12.27;;;16.00;99.90;;;;;;4942419;28;20227;-90
2022/09/10 04:03:44;;;;;;;22.50;11.87;;;16.00;99.90;;;;;;4938951;29;20221;-91
2022/09/10 04:06:15;;;;;;;27.73;12.17;;;16.00;99.90;;;;;;4938830;28;20245;-90
2022/09/10 04:08:42;;;;;;;19.37;10.73;;;16.00;99.90;;;;;;4939543;29;20170;-91
2022/09/10 04:11:09;;;;;;;23.00;12.13;;;15.90;99.90;;;;;;4939563;29;20245;-91
2022/09/10 04:13:34;;;;;;;25.37;12.87;;;15.90;99.90;;;;;;4939076;29;20224;-91
2022/09/10 04:16:00;;;;;;;19.77;11.80;;;15.90;99.90;;;;;;4922979;29;20213;-91
2022/09/10 04:18:27;;;;;;;25.53;11.83;;;15.90;99.90;;;;;;4950811;28;20296;-91
2022/09/10 04:20:54;;;;;;;26.27;12.03;;;15.90;99.90;;;;;;4955335;28;20674;-91
2022/09/10 04:23:22;;;;;;;22.37;12.13;;;15.90;99.90;;;;;;4948338;28;20291;-91
2022/09/10 04:25:48;;;;;;;27.77;12.57;;;15.90;99.90;;;;;;4985041;28;20221;-91
2022/09/10 04:28:15;;;;;;;22.27;10.67;;;15.90;99.90;;;;;;4981127;28;20228;-91
2022/09/10 04:30:49;;;;;;;26.37;11.70;;;15.90;99.90;;;;;;4956459;28;20212;-90
2022/09/10 04:33:19;;;;;;;21.03;13.87;;;15.80;99.90;;;;;;4970341;28;20177;-92
2022/09/10 04:35:52;;;;;;;22.53;11.77;;;15.90;99.90;;;;;;4969303;29;20177;-91
2022/09/10 04:38:20;;;;;;;21.17;10.60;;;15.90;99.90;;;;;;4969453;28;20239;-91
2022/09/10 04:40:47;;;;;;;22.70;12.70;;;15.90;99.90;;;;;;4970939;28;20212;-91
2022/09/10 04:43:12;;;;;;;24.87;13.37;;;15.90;99.90;;;;;;4964695;28;20225;-90
2022/09/10 04:45:40;;;;;;;23.53;11.73;;;15.80;99.90;;;;;;4969674;28;20215;-91
2022/09/10 04:48:05;;;;;;;26.53;12.10;;;15.80;99.90;;;;;;4975473;28;20673;-90
2022/09/10 04:50:31;;;;;;;23.33;11.07;;;15.80;99.90;;;;;;4957687;28;20193;-91
2022/09/10 04:52:57;;;;;;;24.83;12.73;;;15.90;99.90;;;;;;4942946;28;20220;-91
2022/09/10 04:55:24;;;;;;;26.67;13.87;;;15.90;99.90;;;;;;4943359;28;20271;-90
2022/09/10 04:57:50;;;;;;;27.20;14.23;;;15.90;99.90;;;;;;4959800;28;20212;-90
2022/09/10 05:00:16;;;;;;;27.10;11.93;;;16.00;99.90;;;;;;4944739;28;20227;-92
2022/09/10 05:02:42;;;;;;;32.07;12.93;;;16.00;99.90;;;;;;4975601;28;20646;-91
2022/09/10 05:05:08;;;;;;;19.90;10.73;;;16.00;99.90;;;;;;4973286;28;20235;-91
2022/09/10 05:07:34;;;;;;;23.13;12.30;;;16.00;99.90;;;;;;4938505;29;20213;-91
2022/09/10 05:09:59;;;;;;;23.30;12.40;;;16.10;99.90;;;;;;4922482;29;20225;-90
2022/09/10 05:12:25;;;;;;;30.93;13.50;;;16.10;99.90;;;;;;4933323;28;20684;-91
2022/09/10 05:14:51;;;;;;;24.37;12.97;;;16.00;99.90;;;;;;4938832;29;20181;-90
2022/09/10 05:17:18;;;;;;;27.07;13.87;;;16.00;99.90;;;;;;4971973;28;20217;-90
2022/09/10 05:19:44;;;;;;;24.00;11.67;;;16.10;99.90;;;;;;4938850;28;20223;-91
2022/09/10 05:22:10;;;;;;;25.13;14.43;;;16.10;99.90;;;;;;4938279;28;20205;-90
2022/09/10 05:24:37;;;;;;;28.57;14.70;;;16.00;99.90;;;;;;4938098;28;20220;-90
2022/09/10 05:27:03;;;;;;;32.67;15.77;;;16.00;99.90;;;;;;4958497;28;20327;-91
2022/09/10 05:29:32;;;;;;;21.23;12.10;;;16.10;99.90;;;;;;4957235;28;20252;-91
2022/09/10 05:31:58;;;;;;;25.17;13.40;;;16.00;99.90;;;;;;4955051;28;20240;-91
2022/09/10 05:34:24;;;;;;;38.83;16.07;;;16.10;99.90;;;;;;4943814;28;20302;-91
2022/09/10 05:36:50;;;;;;;27.77;15.40;;;16.00;99.90;;;;;;4944946;28;20208;-92
2022/09/10 05:39:16;;;;;;;25.00;13.80;;;16.20;99.90;;;;;;4957777;28;20185;-91
2022/09/10 05:41:42;;;;;;;24.37;11.60;;;16.20;99.90;;;;;;4926713;29;20610;-91
2022/09/10 05:44:08;;;;;;;27.43;12.70;;;16.20;99.90;;;;;;4928407;29;20277;-91
2022/09/10 05:46:34;;;;;;;27.63;13.43;;;16.30;99.90;;;;;;4962489;28;20255;-90
2022/09/10 05:49:00;;;;;;;28.17;13.13;;;16.40;99.90;;;;;;4973578;28;20637;-90
2022/09/10 05:51:29;;;;;;;22.83;13.30;;;16.40;99.90;;;;;;4957128;28;20305;-90
2022/09/10 05:53:56;;;;;;;29.40;12.47;;;16.40;99.90;;;;;;4957949;29;20177;-90
2022/09/10 05:56:24;;;;;;;26.97;12.77;;;16.40;99.90;;;;;;4957031;28;20224;-90
2022/09/10 05:58:50;;;;;;;22.87;12.50;;;16.30;99.90;;;;;;4966785;28;20213;-90
2022/09/10 06:01:16;;;;;;;24.47;13.53;;;16.30;99.90;;;;;;4973021;28;20232;-90
2022/09/10 06:03:41;;;;;;;27.73;14.50;;;16.30;99.90;;;;;;4957010;28;20217;-90
2022/09/10 06:06:08;;;;;;;28.60;12.87;;;16.30;99.90;;;;;;4973066;28;20288;-90
2022/09/10 06:08:34;;;;;;;21.20;12.50;;;16.40;99.90;;;;;;4957518;29;20182;-90
2022/09/10 06:11:05;;;;;;;23.83;13.23;;;16.40;99.90;;;;;;4969088;28;20213;-89
2022/09/10 06:13:33;;;;;;;23.10;11.73;;;16.40;99.90;;;;;;4976404;28;20213;-89
2022/09/10 06:16:00;;;;;;;23.67;12.20;;;16.40;99.90;;;;;;4943337;28;20212;-89
2022/09/10 06:18:26;;;;;;;31.33;14.47;;;16.30;99.90;;;;;;4959413;28;20216;-88
2022/09/10 06:21:03;;;;;;;23.57;13.63;;;16.30;99.90;;;;;;4942778;29;20213;-94
2022/09/10 06:23:30;;;;;;;26.50;12.60;;;16.30;99.90;;;;;;4976795;28;20212;-90
2022/09/10 06:26:13;;;;;;;27.30;13.67;;;16.30;99.90;;;;;;4958768;28;20700;-93
2022/09/10 06:28:39;;;;;;;28.37;12.50;;;16.30;99.90;;;;;;4968974;28;20264;-89
2022/09/10 06:31:06;;;;;;;26.83;12.77;;;16.30;99.90;;;;;;4975432;28;20631;-92
2022/09/10 06:33:34;;;;;;;26.07;12.10;;;16.40;99.90;;;;;;4960418;28;20274;-95
2022/09/10 06:36:01;;;;;;;25.33;13.33;;;16.50;99.90;;;;;;4960608;28;20587;-90
2022/09/10 06:38:29;;;;;;;29.90;12.77;;;16.60;99.90;;;;;;4975952;28;20304;-89
2022/09/10 06:40:58;;;;;;;41.30;15.43;;;16.60;99.90;;;;;;4956751;28;20601;-90
2022/09/10 06:43:25;;;;;;;24.43;13.23;;;16.60;99.90;;;;;;4956707;28;20713;-90
2022/09/10 06:45:55;;;;;;;32.00;13.80;;;16.70;99.90;;;;;;4939318;29;20237;-91
2022/09/10 06:48:27;;;;;;;29.83;14.27;;;16.70;99.90;;;;;;4956140;28;20189;-90
2022/09/10 06:50:58;;;;;;;24.77;14.00;;;16.70;99.90;;;;;;4960553;28;20181;-92
2022/09/10 06:53:26;;;;;;;28.50;13.57;;;16.60;99.90;;;;;;4974306;28;20311;-89
2022/09/10 06:55:52;;;;;;;27.73;14.07;;;16.60;99.90;;;;;;4970594;28;20304;-90
2022/09/10 06:58:20;;;;;;;32.73;13.70;;;16.70;99.90;;;;;;4941789;29;20213;-90
2022/09/10 07:00:46;;;;;;;27.87;13.37;;;16.60;99.90;;;;;;4961416;28;20224;-90
2022/09/10 07:03:14;;;;;;;26.37;13.23;;;16.70;99.90;;;;;;4958935;28;20230;-90
2022/09/10 07:05:44;;;;;;;27.90;11.27;;;16.70;99.90;;;;;;4975846;28;20232;-90
2022/09/10 07:08:14;;;;;;;24.33;12.00;;;16.80;99.90;;;;;;4968887;28;20226;-90
2022/09/10 07:10:43;;;;;;;32.10;14.67;;;16.70;99.90;;;;;;4940435;29;20214;-90
2022/09/10 07:13:11;;;;;;;24.90;11.83;;;16.90;99.90;;;;;;4955881;28;20771;-90
2022/09/10 07:15:44;;;;;;;25.93;12.67;;;17.00;99.90;;;;;;4939912;28;20209;-90
2022/09/10 07:18:13;;;;;;;23.03;12.17;;;17.10;99.90;;;;;;4955705;28;20592;-88
2022/09/10 07:20:40;;;;;;;27.70;14.83;;;17.20;99.90;;;;;;4928674;29;20209;-88
2022/09/10 07:23:06;;;;;;;31.17;15.30;;;17.30;99.90;;;;;;4947937;28;20221;-88
2022/09/10 07:25:33;;;;;;;34.60;12.43;;;17.30;99.90;;;;;;4974582;28;20212;-88
2022/09/10 07:28:00;;;;;;;29.00;11.73;;;17.40;99.90;;;;;;4943102;28;20678;-88
2022/09/10 07:30:28;;;;;;;27.27;12.43;;;17.50;99.90;;;;;;4944041;28;20272;-88
2022/09/10 07:32:54;;;;;;;25.13;13.27;;;17.40;99.90;;;;;;4959505;28;20672;-89
2022/09/10 07:35:20;;;;;;;26.20;14.00;;;17.50;99.90;;;;;;4958739;28;20233;-90
2022/09/10 07:37:45;;;;;;;24.07;14.80;;;17.50;99.90;;;;;;4958763;28;20211;-89
2022/09/10 07:40:12;;;;;;;24.37;12.80;;;17.60;99.90;;;;;;4958550;28;20232;-89
2022/09/10 07:42:38;;;;;;;24.53;12.10;;;17.70;99.90;;;;;;4958144;28;20604;-89
2022/09/10 07:45:07;;;;;;;25.10;13.70;;;17.60;99.90;;;;;;4959027;28;20184;-89
2022/09/10 07:47:33;;;;;;;23.73;13.40;;;17.60;99.90;;;;;;4958969;28;20558;-89
2022/09/10 07:49:59;;;;;;;24.60;12.27;;;17.80;99.90;;;;;;4942412;28;20223;-90
2022/09/10 07:52:25;;;;;;;25.67;14.27;;;17.80;99.90;;;;;;4958806;28;20271;-89
2022/09/10 07:54:51;;;;;;;25.97;11.50;;;17.80;99.90;;;;;;4943195;28;20216;-90
2022/09/10 07:57:18;;;;;;;23.70;13.00;;;17.70;99.90;;;;;;4938725;28;20207;-90
2022/09/10 07:59:44;;;;;;;23.80;12.37;;;17.70;99.90;;;;;;4943117;28;20311;-90
2022/09/10 08:02:14;;;;;;;22.77;11.40;;;17.90;99.90;;;;;;4958761;28;20625;-90
2022/09/10 08:04:39;;;;;;;20.77;11.93;;;17.90;99.90;;;;;;4959166;28;20219;-89
2022/09/10 08:07:05;;;;;;;21.00;11.67;;;18.00;99.90;;;;;;4949703;28;20232;-89
2022/09/10 08:09:32;;;;;;;25.63;12.97;;;17.90;99.90;;;;;;4942214;28;20670;-89
2022/09/10 08:11:58;;;;;;;17.57;12.07;;;18.10;99.90;;;;;;4925216;28;20268;-89
2022/09/10 08:14:24;;;;;;;20.17;11.57;;;18.10;99.90;;;;;;4942262;28;20629;-90
2022/09/10 08:16:51;;;;;;;22.73;11.63;;;18.20;99.90;;;;;;4958285;28;20208;-89
2022/09/10 08:19:17;;;;;;;28.70;13.03;;;18.20;99.90;;;;;;4974163;28;20643;-89
2022/09/10 08:21:44;;;;;;;21.63;11.07;;;18.40;99.90;;;;;;4938599;29;20221;-89
2022/09/10 08:24:10;;;;;;;21.60;11.30;;;18.40;99.90;;;;;;4923431;28;20292;-90
2022/09/10 08:26:35;;;;;;;24.83;12.57;;;18.30;99.90;;;;;;4948762;29;20280;-89
2022/09/10 08:29:02;;;;;;;15.93;10.27;;;18.30;99.90;;;;;;4938707;29;20214;-89
2022/09/10 08:31:28;;;;;;;19.73;11.37;;;18.30;99.90;;;;;;4954157;28;20212;-89
2022/09/10 08:33:55;;;;;;;19.43;12.30;;;18.30;99.90;;;;;;4954335;28;20622;-87
2022/09/10 08:36:22;;;;;;;23.67;10.87;;;18.50;99.90;;;;;;4944648;28;20189;-87
2022/09/10 08:38:49;;;;;;;24.37;12.40;;;18.50;99.90;;;;;;4938806;29;20206;-86
2022/09/10 08:41:43;;;;;;;25.13;12.03;;;18.60;99.90;;;;;;4953511;28;20592;-86
2022/09/10 08:44:09;;;;;;;24.30;12.03;;;18.80;99.90;;;;;;4969797;28;20224;-87
2022/09/10 08:46:44;;;;;;;20.53;11.57;;;18.70;99.90;;;;;;4953517;28;20217;-86
2022/09/10 08:49:31;;;;;;;19.17;11.30;;;18.70;99.90;;;;;;4970110;28;20217;-86
2022/09/10 08:52:15;;;;;;;23.17;11.17;;;18.90;99.90;;;;;;4969969;28;20220;-87
2022/09/10 08:54:55;;;;;;;20.30;11.90;;;19.00;99.90;;;;;;4953642;28;20252;-87
2022/09/10 08:57:38;;;;;;;26.30;12.60;;;19.20;99.90;;;;;;4953797;28;20191;-87
2022/09/10 09:00:09;;;;;;;25.50;11.70;;;19.40;99.90;;;;;;4970950;28;20204;-87
2022/09/10 09:02:59;;;;;;;24.50;11.47;;;19.80;99.90;;;;;;4968009;28;20324;-88
2022/09/10 09:05:27;;;;;;;19.43;10.77;;;20.20;99.90;;;;;;4961955;28;20713;-87
2022/09/10 09:07:57;;;;;;;21.33;11.20;;;20.40;99.90;;;;;;4979031;28;20580;-91
2022/09/10 09:10:46;;;;;;;21.53;12.03;;;20.60;99.90;;;;;;4960527;28;20304;-95
2022/09/10 09:13:50;;;;;;;20.67;10.67;;;20.70;99.90;;;;;;4961695;28;20594;-94
2022/09/10 09:17:13;;;;;;;23.03;11.23;;;20.50;99.90;;;;;;4979106;28;20231;-91
2022/09/10 09:20:07;;;;;;;21.67;10.83;;;20.50;99.90;;;;;;4925746;29;20215;-90
2022/09/10 09:22:53;;;;;;;17.37;9.53;;;20.60;99.90;;;;;;4884552;29;20220;-89
2022/09/10 09:26:02;;;;;;;17.63;10.67;;;20.50;99.90;;;;;;4965204;28;20804;-89
2022/09/10 09:28:38;;;;;;;18.63;9.70;;;20.30;99.90;;;;;;4929084;29;20225;-89
2022/09/10 09:31:29;;;;;;;19.03;9.03;;;20.40;99.90;;;;;;4947564;28;20217;-91
2022/09/10 09:34:12;;;;;;;20.30;11.37;;;20.30;99.90;;;;;;4973320;28;20276;-91
2022/09/10 09:36:45;;;;;;;16.40;10.00;;;20.30;99.90;;;;;;4957962;28;20209;-91
2022/09/10 09:39:21;;;;;;;19.40;10.40;;;20.40;99.90;;;;;;4957727;28;20627;-91
2022/09/10 09:42:07;;;;;;;17.30;10.03;;;20.20;99.90;;;;;;4970496;28;20216;-90
2022/09/10 09:45:11;;;;;;;18.43;9.60;;;20.00;99.90;;;;;;4957203;29;20206;-90
2022/09/10 09:47:36;;;;;;;17.13;9.57;;;20.10;99.90;;;;;;4957330;29;20213;-90
2022/09/10 09:50:02;;;;;;;14.77;8.10;;;19.90;99.90;;;;;;4963041;28;20224;-90
2022/09/10 09:52:30;;;;;;;15.80;9.17;;;19.90;99.90;;;;;;4945082;28;20208;-89
2022/09/10 09:55:03;;;;;;;18.30;10.37;;;20.20;99.90;;;;;;4968471;28;20615;-89
2022/09/10 09:57:29;;;;;;;20.37;10.83;;;20.30;99.90;;;;;;4976552;28;20568;-90
2022/09/10 09:59:54;;;;;;;20.43;10.03;;;20.40;99.90;;;;;;4960729;28;20291;-89
2022/09/10 10:02:29;;;;;;;24.13;11.10;;;20.50;99.90;;;;;;4957106;28;20217;-91
2022/09/10 10:05:06;;;;;;;23.03;10.73;;;20.70;99.90;;;;;;4926007;29;20697;-89
2022/09/10 10:07:40;;;;;;;19.63;10.37;;;20.60;99.90;;;;;;4949229;28;20225;-90
2022/09/10 10:10:23;;;;;;;17.97;9.50;;;20.50;99.90;;;;;;4948197;28;20220;-90
2022/09/10 10:12:53;;;;;;;17.70;8.30;;;20.70;99.90;;;;;;4957202;28;20697;-90
2022/09/10 10:15:40;;;;;;;24.50;9.30;;;20.70;99.90;;;;;;4960458;28;20162;-90
2022/09/10 10:18:34;;;;;;;17.40;9.30;;;20.80;99.90;;;;;;4976296;28;20217;-90
2022/09/10 10:21:32;;;;;;;14.17;8.10;;;20.90;99.90;;;;;;4960717;28;20274;-90
2022/09/10 10:24:20;;;;;;;16.67;9.13;;;20.80;99.90;;;;;;4976232;28;20204;-90
2022/09/10 10:26:47;;;;;;;14.97;7.93;;;20.80;99.90;;;;;;4967861;28;20267;-90
2022/09/10 10:29:19;;;;;;;15.57;8.13;;;21.10;99.90;;;;;;4975300;28;20299;-91
2022/09/10 10:31:50;;;;;;;14.23;7.73;;;20.90;99.90;;;;;;4975395;28;20209;-91
2022/09/10 10:34:58;;;;;;;15.77;7.90;;;20.70;99.90;;;;;;4948017;28;20273;-93
2022/09/10 10:37:44;;;;;;;13.90;8.07;;;20.40;99.90;;;;;;4975986;28;20581;-92
2022/09/10 10:40:35;;;;;;;14.53;7.93;;;20.40;99.90;;;;;;4972301;28;20224;-91
2022/09/10 10:43:19;;;;;;;18.47;9.60;;;20.60;99.90;;;;;;4957216;28;20218;-91
2022/09/10 10:46:04;;;;;;;14.87;7.43;;;20.90;99.90;;;;;;4976440;28;20681;-91
2022/09/10 10:48:58;;;;;;;17.50;8.90;;;20.90;99.90;;;;;;4974633;28;21084;-90
2022/09/10 10:51:50;;;;;;;11.63;6.73;;;20.90;99.90;;;;;;4961697;28;20617;-91
2022/09/10 10:54:36;;;;;;;14.40;8.57;;;20.80;99.90;;;;;;4975594;28;20169;-91
2022/09/10 10:57:19;;;;;;;12.03;6.57;;;20.90;99.90;;;;;;4975870;28;20184;-91
2022/09/10 10:59:58;;;;;;;12.17;7.07;;;21.00;99.90;;;;;;4966858;28;20590;-90
2022/09/10 11:02:51;;;;;;;13.93;7.20;;;21.30;99.90;;;;;;4972265;28;20224;-91
2022/09/10 11:05:26;;;;;;;9.57;6.77;;;21.20;99.90;;;;;;4957861;28;20237;-91
2022/09/10 11:07:55;;;;;;;11.43;6.17;;;21.00;99.90;;;;;;4975124;28;20243;-91
2022/09/10 11:10:23;;;;;;;9.23;6.10;;;20.80;99.90;;;;;;4956034;28;20223;-90
2022/09/10 11:12:56;;;;;;;9.93;5.20;;;20.70;99.90;;;;;;4966512;28;20220;-91
2022/09/10 11:15:46;;;;;;;9.10;5.77;;;20.70;99.90;;;;;;4975234;28;20656;-91
2022/09/10 11:18:26;;;;;;;12.67;7.00;;;20.60;99.90;;;;;;4975037;28;20603;-91
2022/09/10 11:21:01;;;;;;;11.30;6.70;;;20.70;99.90;;;;;;4972147;28;20283;-91
2022/09/10 11:23:33;;;;;;;9.83;6.07;;;20.90;99.90;;;;;;4961425;28;20217;-91
2022/09/10 11:26:20;;;;;;;17.57;7.47;;;20.90;99.90;;;;;;4969717;28;20303;-91
2022/09/10 11:28:53;;;;;;;10.87;6.27;;;20.80;99.90;;;;;;4967766;28;20220;-90
2022/09/10 11:31:40;;;;;;;15.13;7.37;;;21.00;99.90;;;;;;4968969;28;20213;-91
2022/09/10 11:34:16;;;;;;;13.43;8.07;;;21.20;99.90;;;;;;4974535;28;20212;-90
2022/09/10 11:36:52;;;;;;;14.00;6.97;;;21.20;99.90;;;;;;4971501;28;20208;-90
2022/09/10 11:39:37;;;;;;;10.07;6.43;;;21.40;99.90;;;;;;4971118;28;20705;-89
2022/09/10 11:42:12;;;;;;;14.07;8.13;;;21.50;99.90;;;;;;4973249;28;20191;-90
2022/09/10 11:44:50;;;;;;;15.43;8.47;;;22.00;99.90;;;;;;4961663;28;20680;-89
2022/09/10 11:47:22;;;;;;;12.27;6.50;;;22.50;99.90;;;;;;4969743;28;20693;-89
2022/09/10 11:50:00;;;;;;;11.20;6.60;;;22.20;99.90;;;;;;4955587;28;20224;-90
2022/09/10 11:52:30;;;;;;;9.20;6.97;;;22.00;99.90;;;;;;4960615;28;20267;-89
2022/09/10 11:54:57;;;;;;;12.83;7.53;;;21.80;99.90;;;;;;4964458;28;20209;-89
2022/09/10 11:57:23;;;;;;;15.10;6.80;;;22.20;99.90;;;;;;4965616;28;20180;-92
2022/09/10 11:59:57;;;;;;;8.77;5.80;;;22.80;99.90;;;;;;4954948;28;20211;-91
2022/09/10 12:03:08;;;;;;;15.83;6.47;;;22.90;99.90;;;;;;4955290;28;20732;-90
2022/09/10 12:05:49;;;;;;;13.05;6.50;;;23.10;99.90;;;;;;4960385;28;20240;-90
2022/09/10 12:08:39;;;;;;;10.95;6.55;;;23.40;99.90;;;;;;4970770;28;20224;-89
2022/09/10 12:11:34;;;;;;;13.40;7.93;;;23.60;99.90;;;;;;4987318;28;20213;-91
2022/09/10 12:14:15;;;;;;;11.93;6.85;;;23.40;99.90;;;;;;4972716;28;20272;-90
2022/09/10 12:16:50;;;;;;;13.30;6.85;;;22.80;99.90;;;;;;4954465;28;20622;-90
2022/09/10 12:19:28;;;;;;;14.30;7.22;;;22.70;99.90;;;;;;4955888;28;20576;-90
2022/09/10 12:22:08;;;;;;;13.95;7.80;;;22.40;99.90;;;;;;4965732;28;20220;-90
2022/09/10 12:24:38;;;;;;;10.73;7.03;;;22.00;99.90;;;;;;4973521;28;20220;-90
2022/09/10 12:27:05;;;;;;;11.23;6.43;;;21.60;99.90;;;;;;4970687;28;20665;-89
2022/09/10 12:29:35;;;;;;;10.15;6.88;;;21.70;99.90;;;;;;4955040;28;20221;-89
2022/09/10 12:32:19;;;;;;;10.63;6.30;;;21.90;99.90;;;;;;4954353;28;20217;-90
2022/09/10 12:34:48;;;;;;;9.83;6.00;;;21.80;99.90;;;;;;4972316;28;20267;-90
2022/09/10 12:37:27;;;;;;;11.10;6.57;;;21.30;99.90;;;;;;4957737;28;20785;-91
2022/09/10 12:40:24;;;;;;;13.48;6.80;;;21.00;99.90;;;;;;4973427;28;20230;-92
2022/09/10 12:42:51;;;;;;;10.63;6.63;;;21.00;99.90;;;;;;4969198;28;20682;-90
2022/09/10 12:45:58;;;;;;;10.90;6.40;;;21.20;99.90;;;;;;4969279;28;20569;-90
2022/09/10 12:48:25;;;;;;;11.17;5.93;;;21.20;99.90;;;;;;4954039;28;20213;-91
2022/09/10 12:50:59;;;;;;;12.13;6.20;;;21.60;99.90;;;;;;4945276;28;20185;-91
2022/09/10 12:53:34;;;;;;;8.57;4.68;;;22.10;99.90;;;;;;4972779;28;20220;-90
2022/09/10 12:56:32;;;;;;;9.10;4.73;;;22.20;99.90;;;;;;4966461;28;20308;-91